This is the latest recevied weather packets stored in our database for station/object DG4MJS-10. If no packets are shown the sender has not sent any weather packets the latest 10 day(s).
| Time | Temp. | Humidity | Pressure | Rain* | Wind** | Luminosity | Snow |
|---|---|---|---|---|---|---|---|
| 1787416150 | 21.67° C | 44% | 1019.8 hPa | - | - | - | - |
| 1787415252 | 21.67° C | 46% | 1019.8 hPa | - | - | - | - |
| 1787414352 | 22.22° C | 44% | 1019.8 hPa | - | - | - | - |
| 1787413452 | 22.22° C | 46% | 1019.7 hPa | - | - | - | - |
| 1787412552 | 22.22° C | 47% | 1019.7 hPa | - | - | - | - |
| 1787411652 | 21.67° C | 47% | 1019.6 hPa | - | - | - | - |
| 1787410752 | 21.67° C | 47% | 1019.6 hPa | - | - | - | - |
| 1787409852 | 21.67° C | 49% | 1019.6 hPa | - | - | - | - |
| 1787408952 | 21.67° C | 51% | 1019.4 hPa | - | - | - | - |
| 1787408052 | 22.22° C | 49% | 1019.4 hPa | - | - | - | - |
| 1787407152 | 22.22° C | 47% | 1019.2 hPa | - | - | - | - |
| 1787406252 | 21.67° C | 48% | 1019.1 hPa | - | - | - | - |
| 1787405352 | 21.67° C | 51% | 1019.2 hPa | - | - | - | - |
| 1787404451 | 20.56° C | 55% | 1019.1 hPa | - | - | - | - |
| 1787403551 | 19.44° C | 56% | 1019.2 hPa | - | - | - | - |
| 1787402650 | 19.44° C | 61% | 1019.2 hPa | - | - | - | - |
| 1787401750 | 18.89° C | 66% | 1019.2 hPa | - | - | - | - |
| 1787400850 | 18.89° C | 67% | 1019.1 hPa | - | - | - | - |
| 1787399950 | 19.44° C | 62% | 1019 hPa | - | - | - | - |
| 1787399050 | 20.56° C | 53% | 1018.8 hPa | - | - | - | - |
| 1787398150 | 20.56° C | 55% | 1018.7 hPa | - | - | - | - |
| 1787397250 | 20° C | 57% | 1018.8 hPa | - | - | - | - |
| 1787396350 | 19.44° C | 57% | 1018.9 hPa | - | - | - | - |
| 1787395450 | 19.44° C | 55% | 1018.8 hPa | - | - | - | - |
| 1787394550 | 19.44° C | 54% | 1018.6 hPa | - | - | - | - |
* Rain since midnight (hover to see other rain measurements)
** Current wind speed in m/s (hover to see current wind gust speed)